Time;durP1;ratioP1;P1;durP2;ratioP2;P2;SDS_P1;SDS_P2;PMS_P1;PMS_P2;Temp;Humidity;BMP_temperature;BMP_pressure;BME280_temperature;BME280_humidity;BME280_pressure;Samples;Min_cycle;Max_cycle;Signal;HPM_P1;HPM_P2
2020/12/31 00:01:07;;;;;;;7.40;6.22;;;;;;;11.53;nan;100013.75;5020331;27;98992;-76
2020/12/31 00:03:34;;;;;;;6.63;6.03;;;;;;;11.56;nan;100019.13;5020517;27;98113;-78
2020/12/31 00:06:03;;;;;;;7.25;6.65;;;;;;;11.57;nan;100015.66;5001436;28;97798;-76
2020/12/31 00:08:30;;;;;;;6.90;6.30;;;;;;;11.58;nan;100020.09;4999496;28;99111;-76
2020/12/31 00:10:57;;;;;;;7.47;6.78;;;;;;;11.58;nan;100019.19;5019883;28;98160;-75
2020/12/31 00:13:25;;;;;;;6.70;5.70;;;;;;;11.57;nan;100018.28;5017965;27;97999;-75
2020/12/31 00:15:54;;;;;;;7.60;6.80;;;;;;;11.60;nan;100012.25;5018393;27;98109;-76
2020/12/31 00:18:22;;;;;;;7.15;6.50;;;;;;;11.61;nan;100014.94;5001366;28;99170;-74
2020/12/31 00:20:49;;;;;;;7.38;6.68;;;;;;;11.63;nan;100020.25;5020651;27;99258;-78
2020/12/31 00:23:37;;;;;;;7.18;6.47;;;;;;;11.66;nan;100023.03;5018999;27;97632;-75
2020/12/31 00:26:04;;;;;;;8.87;7.97;;;;;;;11.75;nan;100013.72;4996012;28;97508;-78
2020/12/31 00:28:32;;;;;;;9.38;8.48;;;;;;;11.87;nan;100010.63;4995491;28;97882;-73
2020/12/31 00:30:59;;;;;;;7.70;6.85;;;;;;;11.85;nan;100018.47;5020073;27;98271;-75
2020/12/31 00:33:27;;;;;;;6.95;6.35;;;;;;;11.89;nan;100012.50;5020431;27;97119;-77
2020/12/31 00:35:56;;;;;;;6.90;6.30;;;;;;;11.88;nan;100015.03;5003334;27;97530;-75
2020/12/31 00:38:24;;;;;;;7.88;7.15;;;;;;;11.86;nan;100020.25;5020007;27;97471;-74
2020/12/31 00:40:53;;;;;;;7.53;6.78;;;;;;;11.87;nan;100014.19;5020952;27;98087;-73
2020/12/31 00:43:20;;;;;;;7.68;6.57;;;;;;;11.88;nan;100013.31;5020565;27;97893;-75
2020/12/31 00:45:48;;;;;;;7.60;6.90;;;;;;;11.91;nan;100010.81;5020346;27;97108;-77
2020/12/31 00:48:15;;;;;;;7.93;7.22;;;;;;;11.96;nan;100022.41;5000764;28;99924;-76
2020/12/31 00:50:43;;;;;;;7.88;6.68;;;;;;;11.98;nan;100011.91;5003413;28;98163;-74
2020/12/31 00:53:12;;;;;;;7.93;6.22;;;;;;;12.00;nan;100019.03;4994583;28;97557;-73
2020/12/31 00:55:40;;;;;;;9.27;6.95;;;;;;;11.99;nan;100017.22;5003035;28;97175;-77
2020/12/31 00:58:09;;;;;;;6.95;6.25;;;;;;;11.94;nan;100018.81;5001367;28;98939;-75
2020/12/31 01:00:38;;;;;;;7.30;6.60;;;;;;;11.94;nan;100020.53;5019011;27;98111;-77
2020/12/31 01:03:08;;;;;;;7.75;6.95;;;;;;;11.92;nan;100017.84;5003063;28;97328;-75
2020/12/31 01:05:36;;;;;;;6.95;6.35;;;;;;;11.94;nan;100024.06;5003402;28;97381;-76
2020/12/31 01:08:03;;;;;;;7.70;6.90;;;;;;;12.01;nan;100031.34;5019941;27;99469;-76
2020/12/31 01:10:31;;;;;;;7.22;6.63;;;;;;;12.08;nan;100029.81;5020880;27;98149;-76
2020/12/31 01:12:58;;;;;;;9.38;7.75;;;;;;;12.08;nan;100033.34;5020816;27;96798;-77
2020/12/31 01:15:27;;;;;;;7.55;6.85;;;;;;;12.11;nan;100035.19;5020835;27;96964;-76
2020/12/31 01:17:54;;;;;;;7.82;7.18;;;;;;;12.12;nan;100031.72;5020835;27;99238;-76
2020/12/31 01:20:22;;;;;;;6.85;6.15;;;;;;;12.12;nan;100032.63;5020279;27;98681;-76
2020/12/31 01:22:49;;;;;;;8.05;7.32;;;;;;;12.13;nan;100033.53;5020172;27;97062;-75
2020/12/31 01:25:17;;;;;;;7.30;6.70;;;;;;;12.10;nan;100039.56;5021380;27;97204;-75
2020/12/31 01:27:45;;;;;;;7.50;6.80;;;;;;;12.07;nan;100035.94;5021476;27;98045;-74
2020/12/31 01:30:12;;;;;;;8.15;6.88;;;;;;;12.06;nan;100045.56;5024508;27;99413;-75
2020/12/31 01:33:17;;;;;;;10.48;7.78;;;;;;;12.00;nan;100042.72;5023246;28;97232;-78
2020/12/31 01:35:45;;;;;;;7.40;6.80;;;;;;;12.01;nan;100047.13;5022588;27;96763;-76
2020/12/31 01:38:12;;;;;;;7.78;6.70;;;;;;;11.98;nan;100044.41;5021220;27;97899;-77
2020/12/31 01:40:46;;;;;;;7.38;6.70;;;;;;;11.96;nan;100038.19;5003214;27;98173;-77
2020/12/31 01:43:14;;;;;;;8.00;7.22;;;;;;;11.97;nan;100041.72;5021682;27;97402;-76
2020/12/31 01:45:41;;;;;;;8.48;7.40;;;;;;;11.97;nan;100039.09;5020978;27;97981;-78
2020/12/31 01:48:28;;;;;;;9.43;8.40;;;;;;;11.97;nan;100034.69;5019746;27;97515;-79
2020/12/31 01:50:56;;;;;;;9.65;7.82;;;;;;;12.02;nan;100046.28;5020504;27;99892;-77
2020/12/31 01:53:23;;;;;;;11.68;8.27;;;;;;;11.98;nan;100048.75;5021684;27;97564;-76
2020/12/31 01:55:51;;;;;;;8.45;7.57;;;;;;;11.97;nan;100045.22;5003110;28;98065;-77
2020/12/31 01:58:19;;;;;;;8.55;7.75;;;;;;;11.97;nan;100047.84;5019083;27;98031;-78
2020/12/31 02:00:46;;;;;;;8.77;7.78;;;;;;;11.96;nan;100040.81;5020902;27;98969;-78
2020/12/31 02:03:14;;;;;;;7.90;7.07;;;;;;;11.94;nan;100044.22;5019751;27;97549;-76
2020/12/31 02:05:44;;;;;;;8.02;7.25;;;;;;;11.94;nan;100053.03;5020616;27;97206;-77
2020/12/31 02:08:12;;;;;;;8.75;7.38;;;;;;;11.95;nan;100052.16;5017662;27;98991;-76
2020/12/31 02:10:39;;;;;;;8.95;8.02;;;;;;;11.94;nan;100060.91;5020649;27;98007;-75
2020/12/31 02:13:07;;;;;;;10.50;7.53;;;;;;;11.88;nan;100052.78;5021455;27;97267;-79
2020/12/31 02:15:34;;;;;;;9.15;8.25;;;;;;;11.83;nan;100056.09;5020991;27;98040;-79
2020/12/31 02:18:02;;;;;;;9.25;8.20;;;;;;;11.85;nan;100065.84;5019057;27;97927;-75
2020/12/31 02:20:29;;;;;;;9.25;7.75;;;;;;;11.84;nan;100071.94;5019780;27;97899;-75
2020/12/31 02:22:58;;;;;;;10.80;8.30;;;;;;;11.84;nan;100063.19;5019353;27;97072;-75
2020/12/31 02:25:25;;;;;;;9.43;7.95;;;;;;;11.85;nan;100067.59;5019675;27;97552;-76
2020/12/31 02:27:53;;;;;;;9.98;8.00;;;;;;;11.87;nan;100066.81;5018149;27;99542;-76
2020/12/31 02:30:21;;;;;;;10.27;8.57;;;;;;;11.82;nan;100072.75;5026501;27;99264;-75
2020/12/31 02:32:48;;;;;;;10.43;8.52;;;;;;;11.78;nan;100071.75;5018753;27;98372;-75
2020/12/31 02:35:34;;;;;;;8.82;7.80;;;;;;;11.80;nan;100080.59;5020606;27;96796;-74
2020/12/31 02:38:02;;;;;;;10.25;8.68;;;;;;;11.76;nan;100068.16;5020061;27;99730;-75
2020/12/31 02:40:30;;;;;;;10.18;8.48;;;;;;;11.75;nan;100071.59;5021182;27;98937;-75
2020/12/31 02:42:57;;;;;;;9.95;8.15;;;;;;;11.76;nan;100073.41;5020859;27;97884;-75
2020/12/31 02:45:25;;;;;;;9.68;8.43;;;;;;;11.75;nan;100078.63;5001993;27;97598;-75
2020/12/31 02:47:52;;;;;;;11.45;8.70;;;;;;;11.72;nan;100075.84;5020953;28;98237;-76
2020/12/31 02:50:20;;;;;;;11.20;8.88;;;;;;;11.71;nan;100068.81;5019773;27;100928;-75
2020/12/31 02:52:47;;;;;;;11.10;9.27;;;;;;;11.71;nan;100075.00;5002318;28;97382;-75
2020/12/31 02:55:15;;;;;;;10.40;7.90;;;;;;;11.70;nan;100067.91;5019129;27;96885;-76
2020/12/31 02:57:42;;;;;;;10.13;7.78;;;;;;;11.66;nan;100076.53;4999917;28;99174;-77
2020/12/31 03:00:10;;;;;;;8.77;7.88;;;;;;;11.64;nan;100072.91;5018312;27;97880;-76
2020/12/31 03:02:38;;;;;;;11.70;8.52;;;;;;;11.63;nan;100075.47;5021599;27;96971;-73
2020/12/31 03:05:05;;;;;;;12.00;8.77;;;;;;;11.56;nan;100074.38;5021003;27;97008;-76
2020/12/31 03:07:33;;;;;;;10.60;8.40;;;;;;;11.57;nan;100073.50;5021816;28;98477;-76
2020/12/31 03:10:00;;;;;;;9.75;8.10;;;;;;;11.60;nan;100067.50;5020190;28;99142;-75
2020/12/31 03:12:29;;;;;;;10.27;8.55;;;;;;;11.56;nan;100063.84;5019359;27;97170;-76
2020/12/31 03:15:19;;;;;;;8.98;8.00;;;;;;;11.52;nan;100061.03;5018809;27;97382;-76
2020/12/31 03:17:46;;;;;;;10.07;8.77;;;;;;;11.48;nan;100059.16;5017969;27;99105;-78
2020/12/31 03:20:14;;;;;;;9.55;7.60;;;;;;;11.48;nan;100059.16;5017936;27;98402;-77
2020/12/31 03:22:41;;;;;;;10.38;8.43;;;;;;;11.47;nan;100055.63;5019939;27;97367;-76
2020/12/31 03:25:09;;;;;;;9.50;7.72;;;;;;;11.41;nan;100057.09;5019177;27;97094;-76
2020/12/31 03:27:37;;;;;;;10.57;8.43;;;;;;;11.35;nan;100057.75;5018840;28;98008;-77
2020/12/31 03:30:05;;;;;;;9.80;8.30;;;;;;;11.33;nan;100056.81;5019040;27;99125;-76
2020/12/31 03:32:33;;;;;;;9.25;7.82;;;;;;;11.28;nan;100063.63;4996108;28;97293;-75
2020/12/31 03:35:00;;;;;;;9.73;8.50;;;;;;;11.23;nan;100057.31;5018711;27;97388;-78
2020/12/31 03:37:28;;;;;;;10.68;8.90;;;;;;;11.15;nan;100059.63;5019470;27;98396;-76
2020/12/31 03:39:55;;;;;;;9.48;7.65;;;;;;;11.11;nan;100052.44;5018200;27;98910;-78
2020/12/31 03:42:42;;;;;;;8.80;7.85;;;;;;;11.11;nan;100057.72;5018415;27;97451;-77
2020/12/31 03:45:09;;;;;;;8.95;8.02;;;;;;;11.08;nan;100061.94;5019509;27;97773;-73
2020/12/31 03:47:37;;;;;;;8.93;8.00;;;;;;;11.06;nan;100053.09;5018526;27;98739;-77
2020/12/31 03:50:04;;;;;;;9.20;7.57;;;;;;;11.11;nan;100041.06;5019299;28;102844;-76
2020/12/31 03:52:32;;;;;;;8.93;8.02;;;;;;;11.16;nan;100040.41;5018922;27;97882;-79
2020/12/31 03:54:59;;;;;;;11.35;7.68;;;;;;;11.16;nan;100039.50;5018729;27;97812;-77
2020/12/31 03:57:27;;;;;;;8.45;7.63;;;;;;;11.10;nan;100034.00;5018509;27;99491;-77
2020/12/31 03:59:56;;;;;;;9.77;8.77;;;;;;;11.04;nan;100039.00;5018448;27;100867;-76
2020/12/31 04:02:25;;;;;;;11.45;8.52;;;;;;;11.01;nan;100038.91;5017822;27;97216;-76
2020/12/31 04:04:53;;;;;;;11.13;7.93;;;;;;;10.99;nan;100040.56;4996505;27;98668;-77
2020/12/31 04:07:20;;;;;;;9.20;8.30;;;;;;;10.97;nan;100042.22;5018965;27;99132;-79
2020/12/31 04:09:48;;;;;;;9.60;7.60;;;;;;;10.92;nan;100046.41;5019714;27;101986;-75
2020/12/31 04:12:15;;;;;;;8.65;7.75;;;;;;;10.88;nan;100047.13;5023004;27;96764;-78
2020/12/31 04:14:42;;;;;;;8.75;7.85;;;;;;;10.87;nan;100046.25;5023496;27;97488;-76
2020/12/31 04:17:11;;;;;;;9.10;7.80;;;;;;;10.87;nan;100047.97;5023255;28;98116;-76
2020/12/31 04:19:40;;;;;;;9.35;8.32;;;;;;;10.88;nan;100041.88;5022165;27;99737;-76
2020/12/31 04:22:08;;;;;;;9.40;8.25;;;;;;;10.87;nan;100041.00;5005162;28;97462;-75
2020/12/31 04:24:36;;;;;;;8.63;7.53;;;;;;;10.87;nan;100047.97;5023822;27;97271;-76
2020/12/31 04:27:03;;;;;;;10.15;9.02;;;;;;;10.86;nan;100044.44;5022376;27;98993;-74
2020/12/31 04:29:31;;;;;;;9.00;7.57;;;;;;;10.87;nan;100043.63;5021243;28;97812;-76
2020/12/31 04:31:58;;;;;;;9.35;8.35;;;;;;;10.87;nan;100040.09;5022227;28;97230;-75
2020/12/31 04:34:27;;;;;;;8.60;7.60;;;;;;;10.85;nan;100052.28;5022556;27;98025;-72
2020/12/31 04:36:54;;;;;;;10.32;8.05;;;;;;;10.85;nan;100044.38;5020360;27;98309;-75
2020/12/31 04:39:22;;;;;;;9.93;8.27;;;;;;;10.85;nan;100054.91;4993410;28;99220;-74
2020/12/31 04:41:49;;;;;;;9.05;8.02;;;;;;;10.86;nan;100051.41;4991824;28;97897;-76
2020/12/31 04:44:17;;;;;;;10.60;8.77;;;;;;;10.83;nan;100051.31;5021385;27;97107;-78
2020/12/31 04:46:50;;;;;;;8.95;7.57;;;;;;;10.82;nan;100053.03;5020475;27;97854;-77
2020/12/31 04:49:21;;;;;;;8.63;7.75;;;;;;;10.79;nan;100050.28;5020685;27;99135;-78
2020/12/31 04:51:49;;;;;;;9.63;8.00;;;;;;;10.78;nan;100051.13;5021897;27;97404;-77
2020/12/31 04:54:17;;;;;;;8.57;7.68;;;;;;;10.77;nan;100049.34;5020739;27;97438;-79
2020/12/31 04:56:44;;;;;;;8.48;7.63;;;;;;;10.77;nan;100049.34;5020285;27;99691;-77
2020/12/31 04:59:11;;;;;;;10.63;8.30;;;;;;;10.77;nan;100051.06;5019803;27;97882;-76
2020/12/31 05:01:41;;;;;;;10.73;8.00;;;;;;;10.73;nan;100051.78;4995236;27;97228;-77
2020/12/31 05:04:08;;;;;;;8.65;7.60;;;;;;;10.72;nan;100060.47;5004356;28;97399;-77
2020/12/31 05:06:36;;;;;;;10.40;8.98;;;;;;;10.71;nan;100053.44;5022747;27;99447;-79
2020/12/31 05:09:14;;;;;;;9.82;8.23;;;;;;;10.70;nan;100049.91;5021200;27;98842;-74
2020/12/31 05:11:46;;;;;;;8.52;7.68;;;;;;;10.71;nan;100058.69;5022768;28;97371;-77
2020/12/31 05:14:14;;;;;;;9.77;8.18;;;;;;;10.70;nan;100063.06;5023578;28;97171;-75
2020/12/31 05:16:41;;;;;;;10.40;8.50;;;;;;;10.68;nan;100058.56;5023050;27;97866;-78
2020/12/31 05:19:22;;;;;;;9.10;8.18;;;;;;;10.66;nan;100054.97;5023212;28;97875;-77
2020/12/31 05:22:13;;;;;;;12.98;8.35;;;;;;;10.60;nan;100058.25;5021826;27;97216;-76
2020/12/31 05:24:44;;;;;;;9.88;8.02;;;;;;;10.57;nan;100060.75;4994253;27;97414;-77
2020/12/31 05:27:22;;;;;;;9.65;8.70;;;;;;;10.58;nan;100064.28;5019913;27;97474;-78
2020/12/31 05:29:57;;;;;;;13.55;10.38;;;;;;;10.66;nan;100066.38;5017494;27;99713;-77
2020/12/31 05:32:26;;;;;;;9.77;8.77;;;;;;;10.63;nan;100061.00;5021615;27;97336;-77
2020/12/31 05:34:54;;;;;;;11.25;8.80;;;;;;;10.64;nan;100062.78;5022034;27;97986;-74
2020/12/31 05:37:22;;;;;;;9.07;7.95;;;;;;;10.63;nan;100074.16;5020582;27;98165;-77
2020/12/31 05:40:02;;;;;;;9.32;8.45;;;;;;;10.63;nan;100075.88;5020916;27;99054;-75
2020/12/31 05:42:31;;;;;;;12.13;9.10;;;;;;;10.56;nan;100079.97;5020452;27;97463;-75
2020/12/31 05:45:08;;;;;;;10.50;8.70;;;;;;;10.51;nan;100071.00;5021020;28;97251;-78
2020/12/31 05:47:37;;;;;;;11.57;10.15;;;;;;;10.53;nan;100073.72;5018379;27;98017;-75
2020/12/31 05:50:23;;;;;;;9.32;8.43;;;;;;;10.50;nan;100074.47;5019739;27;97995;-76
2020/12/31 05:52:51;;;;;;;11.48;9.00;;;;;;;10.51;nan;100086.75;5018007;27;97245;-79
2020/12/31 05:55:21;;;;;;;10.15;9.15;;;;;;;10.49;nan;100077.91;5017978;27;97791;-75
2020/12/31 05:57:50;;;;;;;10.57;9.48;;;;;;;10.47;nan;100081.31;5017364;27;97925;-75
2020/12/31 06:00:20;;;;;;;11.35;9.23;;;;;;;10.48;nan;100089.25;5004329;27;100074;-77
2020/12/31 06:02:49;;;;;;;13.05;8.90;;;;;;;10.46;nan;100082.13;5015148;27;98194;-77
2020/12/31 06:05:18;;;;;;;10.38;8.10;;;;;;;10.42;nan;100090.75;5020287;27;98060;-76
2020/12/31 06:07:47;;;;;;;11.50;9.27;;;;;;;10.42;nan;100093.38;5019419;27;98311;-75
2020/12/31 06:10:21;;;;;;;13.30;9.13;;;;;;;10.38;nan;100089.72;5000952;28;99440;-76
2020/12/31 06:12:51;;;;;;;14.73;9.90;;;;;;;10.37;nan;100094.88;5018953;27;97770;-77
2020/12/31 06:15:26;;;;;;;34.58;18.23;;;;;;;10.38;nan;100088.81;5017725;27;98084;-74
2020/12/31 06:17:57;;;;;;;16.30;11.65;;;;;;;10.39;nan;100090.59;5019540;27;97904;-76
2020/12/31 06:20:25;;;;;;;13.65;8.93;;;;;;;10.38;nan;100094.06;5019486;27;98086;-76
2020/12/31 06:23:02;;;;;;;12.82;8.57;;;;;;;10.37;nan;100087.00;5018723;27;97878;-75
2020/12/31 06:25:38;;;;;;;27.17;13.40;;;;;;;10.39;nan;100091.50;5019836;27;97149;-76
2020/12/31 06:28:16;;;;;;;12.50;8.77;;;;;;;10.39;nan;100088.88;5019957;27;98160;-72
2020/12/31 06:30:45;;;;;;;11.77;9.50;;;;;;;10.40;nan;100092.41;5019547;27;98100;-74
2020/12/31 06:33:20;;;;;;;11.05;8.38;;;;;;;10.42;nan;100094.22;5019566;27;97922;-75
2020/12/31 06:35:49;;;;;;;10.25;8.35;;;;;;;10.38;nan;100088.81;5018335;27;97477;-75
2020/12/31 06:38:28;;;;;;;10.50;9.07;;;;;;;10.36;nan;100094.00;5018491;27;99094;-75
2020/12/31 06:40:56;;;;;;;10.65;8.75;;;;;;;10.36;nan;100103.59;5019122;28;97878;-75
2020/12/31 06:43:30;;;;;;;13.50;8.75;;;;;;;10.34;nan;100100.00;5019236;27;97540;-76
2020/12/31 06:45:58;;;;;;;13.02;11.02;;;;;;;10.41;nan;100102.06;5018818;27;97893;-76
2020/12/31 06:48:36;;;;;;;11.88;9.70;;;;;;;10.41;nan;100102.06;5015287;27;97873;-75
2020/12/31 06:51:06;;;;;;;14.75;9.18;;;;;;;10.38;nan;100101.94;5017056;27;98673;-75
2020/12/31 06:53:35;;;;;;;15.00;9.90;;;;;;;10.35;nan;100100.06;5018911;27;97338;-76
2020/12/31 06:56:05;;;;;;;14.20;11.57;;;;;;;10.48;nan;100109.34;5016957;27;98345;-77
2020/12/31 06:58:33;;;;;;;12.88;10.02;;;;;;;10.42;nan;100111.75;5017740;27;98287;-77
2020/12/31 07:01:02;;;;;;;12.73;10.20;;;;;;;10.40;nan;100102.91;5001133;28;98299;-76
2020/12/31 07:03:46;;;;;;;15.35;12.50;;;;;;;10.51;nan;100105.13;5017459;27;97240;-75
2020/12/31 07:06:31;;;;;;;14.50;12.05;;;;;;;10.56;nan;100111.50;5012816;27;99625;-73
2020/12/31 07:09:05;;;;;;;14.13;9.98;;;;;;;10.48;nan;100107.63;5017685;27;98047;-76
2020/12/31 07:11:35;;;;;;;13.48;10.13;;;;;;;10.46;nan;100109.28;5017241;27;97933;-76
2020/12/31 07:14:21;;;;;;;12.55;10.50;;;;;;;10.42;nan;100106.50;4987571;28;97697;-74
2020/12/31 07:16:56;;;;;;;14.90;9.00;;;;;;;10.41;nan;100116.09;5019178;27;97943;-74
2020/12/31 07:19:32;;;;;;;11.52;8.88;;;;;;;10.38;nan;100117.69;5016927;27;99057;-73
2020/12/31 07:22:02;;;;;;;12.27;9.70;;;;;;;10.38;nan;100110.72;5016734;27;98211;-74
2020/12/31 07:24:32;;;;;;;13.98;10.45;;;;;;;10.41;nan;100112.56;5018060;27;97628;-76
2020/12/31 07:27:00;;;;;;;11.15;9.65;;;;;;;10.39;nan;100112.50;5018596;27;97970;-78
2020/12/31 07:29:32;;;;;;;14.90;10.60;;;;;;;10.37;nan;100115.88;5016885;27;97888;-77
2020/12/31 07:32:01;;;;;;;12.98;9.88;;;;;;;10.36;nan;100116.72;5015970;27;97860;-75
2020/12/31 07:34:30;;;;;;;13.38;10.10;;;;;;;10.36;nan;100114.09;5018025;28;97634;-76
2020/12/31 07:37:02;;;;;;;16.67;12.80;;;;;;;10.46;nan;100113.63;5015659;27;97289;-76
2020/12/31 07:39:31;;;;;;;15.85;12.68;;;;;;;10.55;nan;100112.31;5015305;27;98985;-72
2020/12/31 07:42:13;;;;;;;15.60;12.85;;;;;;;10.61;nan;100111.66;5017064;27;99064;-74
2020/12/31 07:44:51;;;;;;;15.57;12.50;;;;;;;10.67;nan;100106.69;5016559;27;97516;-73
2020/12/31 07:47:20;;;;;;;16.50;12.67;;;;;;;10.72;nan;100113.91;5021216;27;96957;-74
2020/12/31 07:49:49;;;;;;;35.28;25.00;;;;;;;10.76;nan;100109.69;5018832;27;98595;-72
2020/12/31 07:52:16;;;;;;;22.45;16.67;;;;;;;10.83;nan;100111.72;5018626;27;99083;-74
2020/12/31 07:54:43;;;;;;;12.18;10.45;;;;;;;10.76;nan;100104.44;5020623;27;97199;-74
2020/12/31 07:57:13;;;;;;;10.82;9.23;;;;;;;10.71;nan;100104.22;5020588;27;98083;-75
2020/12/31 07:59:44;;;;;;;13.25;9.55;;;;;;;10.64;nan;100106.53;5019299;27;98965;-74
2020/12/31 08:02:15;;;;;;;13.15;10.38;;;;;;;10.62;nan;100106.47;5013560;27;97391;-73
2020/12/31 08:04:42;;;;;;;16.40;10.70;;;;;;;10.57;nan;100109.75;5020430;27;96890;-75
2020/12/31 08:07:16;;;;;;;21.77;14.20;;;;;;;10.57;nan;100104.50;5019645;27;96972;-74
2020/12/31 08:09:49;;;;;;;19.63;12.82;;;;;;;10.50;nan;100113.84;5018617;27;98875;-74
2020/12/31 08:12:38;;;;;;;16.35;12.13;;;;;;;10.49;nan;100109.41;5004409;28;97914;-75
2020/12/31 08:15:07;;;;;;;12.98;10.05;;;;;;;10.46;nan;100111.91;5020299;27;96913;-74
2020/12/31 08:17:35;;;;;;;13.32;10.48;;;;;;;10.45;nan;100111.84;5020158;27;98140;-74
2020/12/31 08:20:03;;;;;;;14.25;10.55;;;;;;;10.45;nan;100114.47;5019299;27;99016;-74
2020/12/31 08:22:33;;;;;;;12.80;10.30;;;;;;;10.41;nan;100107.31;5019402;27;101276;-73
2020/12/31 08:25:04;;;;;;;14.88;10.75;;;;;;;10.41;nan;100109.94;5019605;27;96872;-74
2020/12/31 08:27:37;;;;;;;13.30;10.07;;;;;;;10.40;nan;100110.78;4988506;28;97602;-74
2020/12/31 08:30:07;;;;;;;14.15;10.68;;;;;;;10.43;nan;100111.78;5019660;27;99145;-75
2020/12/31 08:32:50;;;;;;;18.33;13.18;;;;;;;10.54;nan;100114.88;5019022;27;96842;-73
2020/12/31 08:35:22;;;;;;;15.50;12.45;;;;;;;10.65;nan;100109.25;5019929;27;97844;-78
2020/12/31 08:38:01;;;;;;;11.80;10.00;;;;;;;10.64;nan;100112.69;5019765;27;97092;-75
2020/12/31 08:40:30;;;;;;;10.18;9.02;;;;;;;10.67;nan;100107.59;5003013;28;99689;-76
2020/12/31 08:42:59;;;;;;;11.80;9.10;;;;;;;10.67;nan;100115.47;4989371;28;99476;-77
2020/12/31 08:45:29;;;;;;;9.98;8.25;;;;;;;10.69;nan;100119.03;5018163;27;97308;-78
2020/12/31 08:48:13;;;;;;;12.10;8.93;;;;;;;10.73;nan;100118.31;5019804;27;97324;-78
2020/12/31 08:50:42;;;;;;;9.77;8.40;;;;;;;10.73;nan;100118.31;5020526;27;97979;-77
2020/12/31 08:53:11;;;;;;;13.32;11.30;;;;;;;10.85;nan;100121.47;5000898;28;99076;-76
2020/12/31 08:55:38;;;;;;;13.57;10.02;;;;;;;10.84;nan;100105.63;5017933;27;96632;-76
2020/12/31 08:58:16;;;;;;;10.95;9.32;;;;;;;10.86;nan;100119.72;5016931;27;97824;-78
2020/12/31 09:00:44;;;;;;;11.00;8.40;;;;;;;10.87;nan;100118.91;5017056;27;98276;-75
2020/12/31 09:03:18;;;;;;;13.27;10.88;;;;;;;11.05;nan;100112.69;5019569;27;98335;-72
2020/12/31 09:06:04;;;;;;;13.57;11.18;;;;;;;11.20;nan;100120.28;5020476;27;97367;-75
2020/12/31 09:08:32;;;;;;;12.02;10.68;;;;;;;11.19;nan;100111.50;5017833;27;99276;-75
2020/12/31 09:11:00;;;;;;;10.98;8.93;;;;;;;11.20;nan;100115.91;5019775;27;98290;-74
2020/12/31 09:13:34;;;;;;;13.85;10.35;;;;;;;11.16;nan;100115.72;4991062;28;97873;-74
2020/12/31 09:16:10;;;;;;;11.40;10.07;;;;;;;11.23;nan;100121.31;5018351;27;97643;-73
2020/12/31 09:18:38;;;;;;;10.63;7.95;;;;;;;11.24;nan;100119.53;5017433;27;97977;-76
2020/12/31 09:21:06;;;;;;;9.00;8.10;;;;;;;11.23;nan;100123.94;5018056;27;97909;-75
2020/12/31 09:23:34;;;;;;;8.43;7.63;;;;;;;11.28;nan;100113.56;5018716;27;98050;-76
2020/12/31 09:26:02;;;;;;;8.35;7.55;;;;;;;11.29;nan;100118.03;5019728;27;97264;-75
2020/12/31 09:28:31;;;;;;;8.23;7.43;;;;;;;11.30;nan;100111.00;5017080;27;98492;-76
2020/12/31 09:31:15;;;;;;;8.90;8.00;;;;;;;11.32;nan;100109.34;5016158;27;98028;-76
2020/12/31 09:33:42;;;;;;;9.23;8.00;;;;;;;11.32;nan;100110.25;5018569;27;99291;-76
2020/12/31 09:36:10;;;;;;;9.90;8.38;;;;;;;11.35;nan;100114.72;5018377;27;96768;-71
2020/12/31 09:38:38;;;;;;;19.50;14.88;;;;;;;11.37;nan;100103.41;5014341;27;97152;-74
2020/12/31 09:41:05;;;;;;;17.83;12.30;;;;;;;11.38;nan;100107.84;5012885;27;98883;-75
2020/12/31 09:43:33;;;;;;;12.75;10.48;;;;;;;11.45;nan;100107.25;4997793;28;98415;-73
2020/12/31 09:46:02;;;;;;;9.43;8.52;;;;;;;11.46;nan;100097.63;5020522;27;98175;-74
2020/12/31 09:48:30;;;;;;;15.02;8.93;;;;;;;11.49;nan;100101.28;5002302;28;97111;-75
2020/12/31 09:50:57;;;;;;;8.65;7.78;;;;;;;11.50;nan;100104.78;5020426;27;98365;-73
2020/12/31 09:53:25;;;;;;;10.02;8.25;;;;;;;11.54;nan;100109.34;5020830;27;98114;-75
2020/12/31 09:55:52;;;;;;;8.07;7.28;;;;;;;11.50;nan;100113.56;5021520;27;97688;-74
2020/12/31 09:58:20;;;;;;;12.93;9.93;;;;;;;11.49;nan;100109.16;5017621;28;97494;-75
2020/12/31 10:00:48;;;;;;;24.60;13.93;;;;;;;11.52;nan;100101.38;5016627;27;97819;-75
2020/12/31 10:03:16;;;;;;;14.10;10.07;;;;;;;11.56;nan;100105.94;5016981;27;100416;-70
2020/12/31 10:05:44;;;;;;;10.70;9.18;;;;;;;11.57;nan;100106.84;5016880;27;96761;-73
2020/12/31 10:08:12;;;;;;;12.77;9.95;;;;;;;11.59;nan;100095.50;5003782;27;98512;-74
2020/12/31 10:10:39;;;;;;;10.55;9.25;;;;;;;11.63;nan;100101.78;5014504;27;99193;-72
2020/12/31 10:13:07;;;;;;;9.70;8.70;;;;;;;11.62;nan;100095.66;5012528;27;97887;-73
2020/12/31 10:15:35;;;;;;;10.10;8.18;;;;;;;11.66;nan;100094.94;5016217;27;97389;-72
2020/12/31 10:18:04;;;;;;;8.98;7.97;;;;;;;11.72;nan;100096.91;5015642;27;97920;-76
2020/12/31 10:20:31;;;;;;;10.77;9.47;;;;;;;11.79;nan;100088.41;5014030;27;98208;-76
2020/12/31 10:22:59;;;;;;;10.38;9.38;;;;;;;11.86;nan;100086.06;5015027;27;98064;-76
2020/12/31 10:25:27;;;;;;;10.98;9.82;;;;;;;11.87;nan;100086.97;5013688;27;98276;-76
2020/12/31 10:27:55;;;;;;;10.83;9.80;;;;;;;11.93;nan;100088.06;5014823;27;97193;-75
2020/12/31 10:30:22;;;;;;;8.38;7.45;;;;;;;11.97;nan;100089.97;5014672;27;98245;-74
2020/12/31 10:32:50;;;;;;;9.50;8.52;;;;;;;11.97;nan;100092.59;5016058;27;97871;-76
2020/12/31 10:35:18;;;;;;;35.03;18.77;;;;;;;11.99;nan;100085.66;5011210;27;98035;-74
2020/12/31 10:37:46;;;;;;;12.50;9.48;;;;;;;11.99;nan;100093.56;5004707;27;97096;-76
2020/12/31 10:40:13;;;;;;;8.80;8.00;;;;;;;11.99;nan;100087.38;4992459;28;98294;-76
2020/12/31 10:42:42;;;;;;;9.50;7.93;;;;;;;11.99;nan;100077.75;5010107;27;100858;-73
2020/12/31 10:45:09;;;;;;;8.02;7.32;;;;;;;12.03;nan;100084.94;5016158;27;97432;-72
2020/12/31 10:47:37;;;;;;;10.02;9.02;;;;;;;12.03;nan;100078.78;4994564;28;97659;-77
2020/12/31 10:50:04;;;;;;;39.05;21.80;;;;;;;12.05;nan;100078.00;5010561;27;98162;-73
2020/12/31 10:52:33;;;;;;;15.77;11.52;;;;;;;12.06;nan;100074.50;5013076;27;99230;-73
2020/12/31 10:55:00;;;;;;;22.93;18.07;;;;;;;12.11;nan;100067.69;5014758;27;97833;-73
2020/12/31 10:57:29;;;;;;;10.32;8.68;;;;;;;12.13;nan;100073.00;5015995;27;97834;-73
2020/12/31 10:59:56;;;;;;;9.95;8.30;;;;;;;12.13;nan;100075.66;5015040;27;97486;-75
2020/12/31 11:02:24;;;;;;;10.70;9.70;;;;;;;12.17;nan;100067.88;4997757;28;99203;-73
2020/12/31 11:04:51;;;;;;;8.80;7.93;;;;;;;12.15;nan;100069.56;5017201;27;97835;-72
2020/12/31 11:07:18;;;;;;;10.60;9.60;;;;;;;12.21;nan;100063.63;5015104;27;97379;-75
2020/12/31 11:09:47;;;;;;;9.52;8.73;;;;;;;12.23;nan;100062.84;5015675;27;99330;-74
2020/12/31 11:12:14;;;;;;;9.70;8.27;;;;;;;12.24;nan;100063.75;5016844;27;98442;-75
2020/12/31 11:14:42;;;;;;;9.07;8.18;;;;;;;12.25;nan;100060.25;5016729;27;96889;-73
2020/12/31 11:17:10;;;;;;;9.48;7.93;;;;;;;12.30;nan;100060.44;5016211;27;98017;-75
2020/12/31 11:19:37;;;;;;;10.43;9.52;;;;;;;12.39;nan;100052.84;4998396;27;98565;-76
2020/12/31 11:22:07;;;;;;;9.68;8.68;;;;;;;12.37;nan;100054.53;5019730;27;97838;-77
2020/12/31 11:24:34;;;;;;;14.50;11.30;;;;;;;12.39;nan;100053.72;5000850;27;97327;-76
2020/12/31 11:27:03;;;;;;;10.10;8.05;;;;;;;12.39;nan;100043.19;4994029;28;97892;-73
2020/12/31 11:29:30;;;;;;;8.82;7.90;;;;;;;12.40;nan;100036.19;5000678;27;98543;-74
2020/12/31 11:32:00;;;;;;;8.57;7.68;;;;;;;12.43;nan;100034.56;5018465;27;99711;-72
2020/12/31 11:34:28;;;;;;;8.27;7.50;;;;;;;12.43;nan;100041.53;5018131;27;98191;-73
2020/12/31 11:36:56;;;;;;;10.60;9.50;;;;;;;12.50;nan;100033.91;5017302;27;97863;-75
2020/12/31 11:39:24;;;;;;;9.30;8.40;;;;;;;12.56;nan;100035.84;5015413;27;97918;-72
2020/12/31 11:41:55;;;;;;;8.50;7.60;;;;;;;12.54;nan;100029.63;5017380;27;97507;-75
2020/12/31 11:44:24;;;;;;;10.27;9.27;;;;;;;12.63;nan;100027.28;5016289;27;97312;-73
2020/12/31 11:46:52;;;;;;;9.98;9.00;;;;;;;12.68;nan;100025.72;5015717;27;97292;-76
2020/12/31 11:49:20;;;;;;;9.85;8.85;;;;;;;12.74;nan;100021.53;5017775;27;97916;-72